Home > Products > Valid Products > TAF

000
FTUS41 KGYX 310722 AAA
TAFPWM
TAF AMD
KPWM 310722Z 3107/0106 33020G34KT 1 1/2SM -SN OVC045
     FM311000 32018G28KT P6SM -SHSN BKN035
     FM311900 32018G30KT P6SM SCT050
     FM312300 32010KT P6SM SKC=



000
FTUS41 KGYX 310521
TAFPSM
TAF
KPSM 310521Z 3106/0106 29014G20KT 3SM -SN OVC040
     FM310900 31018G29KT P6SM BKN040
     FM311700 32018G30KT P6SM SCT050
     FM312200 32010KT P6SM SKC=



000
FTUS41 KGYX 310521
TAFPWM
TAF
KPWM 310521Z 3106/0106 32020G28KT 4SM -SN OVC045
     FM310800 32018G28KT P6SM -SHSN BKN035
     FM311900 32018G30KT P6SM SCT050
     FM312300 32010KT P6SM SKC=



000
FTUS41 KGYX 310521
TAFLEB
TAF
KLEB 310521Z 3106/0106 35014G20KT P6SM BKN100
     FM311200 33015G25KT P6SM SCT100
     FM311700 32015G25KT P6SM SKC=



000
FTUS41 KGYX 310521
TAFAUG
TAF
KAUG 310521Z 3106/0106 33017G30KT 1 1/2SM -SN BLSN SCT014 OVC020
     FM311000 34018G28KT 4SM -SN BLSN OVC020
     FM311300 33020G30KT P6SM -SHSN BKN035
     FM311900 32018G30KT P6SM SCT050
     FM312300 32010KT P6SM SKC=



000
FTUS41 KGYX 310521
TAFCON
TAF
KCON 310521Z 3106/0106 31019G29KT P6SM OVC100
     FM310800 32018G30KT P6SM BKN080
     FM311600 32018G30KT P6SM SCT050
     FM312200 32010KT P6SM SKC=



000
FTUS41 KGYX 310409 AAB
TAFPWM
TAF AMD
KPWM 310409Z 3104/3124 34015G22KT 6SM -SN BLSN OVC035
     FM310600 34015G23KT 4SM -SN BR BKN025
     FM310800 33018G28KT P6SM -SHSN BKN035=



000
FTUS41 KGYX 310055 AAA
TAFPWM
TAF AMD
KPWM 310055Z 3101/3124 34015G22KT 6SM -SN BLSN OVC025
     FM310600 34015G23KT 4SM -SN BR BKN025
     FM310800 33018G28KT P6SM -SHSN BKN035=



000
FTUS41 KGYX 302329
TAFCON
TAF
KCON 302329Z 3100/3124 32015G26KT 6SM -SHSN BLSN OVC035
     FM311000 32018G28KT P6SM BKN040=



000
FTUS41 KGYX 302329
TAFAUG
TAF
KAUG 302329Z 3100/3124 35014G26KT 1SM -SN BLSN OVC007
     FM311000 34018G28KT 4SM -SN BLSN OVC020
     FM311300 33020G30KT P6SM -SHSN BKN035=



000
FTUS41 KGYX 302329
TAFPWM
TAF
KPWM 302329Z 3100/3124 34015G22KT 1 1/2SM -SN BLSN OVC025
     FM310700 33018G28KT P6SM -SHSN BKN035=



000
FTUS41 KGYX 302329
TAFLEB
TAF
KLEB 302329Z 3100/3124 36013G23KT 6SM -SHSN BR OVC035
     FM311000 33015G25KT P6SM BKN040=



000
FTUS41 KGYX 302329
TAFPSM
TAF
KPSM 302329Z 3100/3124 30007KT 3SM -SN BR BKN035
     FM310300 32015G28KT 6SM -SN BLSN OVC035
     FM310800 31018G29KT P6SM BKN040=



000
FTUS41 KGYX 302108 AAB
TAFLEB
TAF AMD
KLEB 302108Z 3021/3118 26013G22KT 6SM -SHSN BR OVC025
     FM310700 33011G20KT P6SM -SHSN BKN040=



000
FTUS41 KGYX 302028 AAA
TAFLEB
TAF AMD
KLEB 302028Z 3020/3118 VRB03KT 6SM -SHSN BR OVC025
      TEMPO 3020/3022 4SM -SN BR OVC012
     FM310700 33011G20KT P6SM -SHSN BKN040=



000
FTUS41 KGYX 302023 AAA
TAFPSM
TAF AMD
KPSM 302023Z 3020/3118 30007KT 5SM -SN BR BKN015
     FM310300 32016G28KT 6SM -SN BLSN OVC025
     FM310800 31018G29KT P6SM BKN040=



000
FTUS41 KGYX 302000 AAA
TAFCON
TAF AMD
KCON 302000Z 3020/3118 31007KT 6SM -SN BR OVC022
     FM310000 32015G26KT 6SM -SHSN BLSN OVC035
     FM311000 32018G28KT P6SM BKN040=



000
FTUS41 KGYX 301741
TAFAUG
TAF
KAUG 301741Z 3018/3118 02006KT 1/2SM SN FZFG OVC012
     FM302300 35014G26KT 1SM -SN BLSN OVC007
     FM310700 34018G28KT 4SM -SN BLSN OVC020
     FM311300 33020G30KT P6SM -SHSN BKN035=



000
FTUS41 KGYX 301741
TAFPWM
TAF
KPWM 301741Z 3018/3118 35006KT 1SM -SN BR OVC012
      TEMPO 3019/3022 3/4SM -SN BR OVC008
     FM310000 34015G26KT 3SM -SN BLSN OVC020
     FM311000 33018G28KT P6SM -SHSN BKN035=



000
FTUS41 KGYX 301741
TAFLEB
TAF
KLEB 301741Z 3018/3118 VRB03KT 3SM -SHSN BR SCT012 OVC035
      TEMPO 3018/3022 2SM -SN BR OVC012
     FM302200 34010KT 4SM -SN BLSN OVC025
     FM310800 33011G20KT P6SM -SHSN BKN040=



000
FTUS41 KGYX 301741
TAFCON
TAF
KCON 301741Z 3018/3118 31007KT 2SM -SN BR OVC012
      TEMPO 3018/3021 1/2SM SN FZFG
     FM310000 32015G26KT 4SM -SHSN BLSN OVC025
     FM311000 32018G28KT P6SM BKN040=



000
FTUS41 KGYX 301741
TAFPSM
TAF
KPSM 301741Z 3018/3118 30007KT 1/2SM SN FZFG VV012
      TEMPO 3019/3021 2SM -SN BR OVC020
     FM302100 31010KT 3SM -SN BR OVC025
     FM310300 32016G28KT 3SM -SN BLSN OVC015
     FM311200 31018G29KT P6SM BKN040=



000
FTUS41 KGYX 301623 AAA
TAFLEB
TAF AMD
KLEB 301623Z 3016/3112 VRB03KT 1 1/2SM -SN BR OVC012
      TEMPO 3016/3019 1/2SM SN FZFG OVC008
     FM301900 32008KT 2SM -SN BR OVC012
     FM302100 33013G24KT 6SM -SHSN OVC025=



000
FTUS41 KGYX 301429 AAA
TAFAUG
TAF AMD
KAUG 301429Z 3014/3112 36006KT 1 1/2SM -SN BR OVC006
     FM301900 06006KT 1/2SM SN FG OVC003
     FM310000 35014G24KT 2SM -SN BLSN OVC009
     FM310600 34018G28KT 3SM -SHSN BLSN OVC025=



000
FTUS41 KGYX 301359 AAB
TAFCON
TAF AMD
KCON 301359Z 3014/3112 VRB03KT 2SM -SN BR OVC008
      TEMPO 3014/3016 -FZRA
     FM301700 32007KT 1SM -SN BR OVC006
     FM310000 32014G26KT 4SM -SHSN OVC020=



000
FTUS41 KGYX 301219 AAA
TAFCON
TAF AMD
KCON 301219Z 3012/3112 VRB03KT 6SM -SN BR OVC012
      TEMPO 3012/3014 1 1/2SM -SN BR OVC009
     FM301400 VRB03KT 3/4SM -SN BR OVC005
     FM301900 32008KT 2SM -SN BR OVC007
     FM302200 33013G24KT 6SM -SHSN OVC025=



000
FTUS41 KGYX 301122
TAFCON
TAF
KCON 301122Z 3012/3112 VRB03KT 3SM -SN BR OVC020
      TEMPO 3012/3014 1 1/2SM -SN BR OVC012
     FM301400 VRB03KT 3/4SM -SN BR OVC005
     FM301900 32008KT 2SM -SN BR OVC007
     FM302200 33013G24KT 6SM -SHSN OVC025=



000
FTUS41 KGYX 301122
TAFPWM
TAF
KPWM 301122Z 3012/3112 VRB03KT 3SM -SN BR OVC020
      TEMPO 3012/3014 1SM -SN BR OVC008
     FM301400 VRB03KT 1SM -SN BR OVC007
     FM301500 13008KT 1/2SM SN OVC004
     FM310300 33017G28KT 3SM -SN BLSN OVC025=



000
FTUS41 KGYX 301122
TAFAUG
TAF
KAUG 301122Z 3012/3112 VRB03KT 6SM -SN BR SCT015 OVC035
      TEMPO 3012/3015 1 1/2SM -SN BR OVC015
     FM301500 11006KT 3/4SM -SN BR OVC007
     FM301700 13008KT 1/2SM SN OVC004
     FM310500 33015G24KT 1 1/2SM -SN BLSN OVC012=



000
FTUS41 KGYX 301122
TAFPSM
TAF
KPSM 301122Z 3012/3112 15006KT 3/4SM -SN BR OVC003
      TEMPO 3012/3014 2SM -SN BR OVC010
     FM301800 13008KT 1/2SM SN OVC004
     FM310000 33013G24KT 3SM -SHSN OVC025=



000
FTUS41 KGYX 301122
TAFLEB
TAF
KLEB 301122Z 3012/3112 VRB03KT 5SM -SN BR OVC020
      TEMPO 3012/3014 2SM -SN BR OVC012
     FM301400 VRB03KT 1 1/2SM -SN BR OVC007
     FM301800 32008KT 2SM -SN BR OVC007
     FM302100 33013G24KT 6SM -SHSN OVC025=



000
FTUS41 KGYX 301050 AAB
TAFAUG
TAF AMD
KAUG 301050Z 3011/3106 VRB03KT 3SM -SN BR SCT015 OVC035
      TEMPO 3011/3013 1SM -SN BR OVC015
     FM301300 11006KT 3/4SM -SN BR OVC007
     FM301500 13008KT 1/2SM SN OVC004
     FM310500 33015G24KT 1 1/2SM -SN BLSN OVC012=



000
FTUS41 KGYX 301006 AAC
TAFLEB
TAF AMD
KLEB 301006Z 3010/3106 VRB03KT 6SM -SN BR OVC025
      TEMPO 3010/3013 2SM -SN BR OVC015
     FM301300 VRB03KT 1 1/2SM -SN BR OVC007
     FM301800 32008KT 2SM -SN BR OVC007
     FM302100 33013G24KT 6SM -SHSN OVC025=



000
FTUS41 KGYX 300927 AAC
TAFPWM
TAF AMD
KPWM 300927Z 3009/3106 VRB03KT 3SM -SN BR OVC035
      TEMPO 3009/3010 1SM -SN BR OVC015
     FM301000 06004KT 1 1/2SM -SN BR OVC015
     FM301200 11006KT 3/4SM -SN BR OVC007
     FM301500 13008KT 1/2SM SN OVC004
     FM310300 33017G28KT 3SM -SN BLSN OVC025=



000
FTUS41 KGYX 300927 AAE
TAFCON
TAF AMD
KCON 300927Z 3009/3106 15005KT 3SM -SN BR OVC030
      TEMPO 3009/3011 1 1/2SM -SN BR OVC015
     FM301100 12004KT 1/2SM SN FG OVC004
     FM301900 32008KT 2SM -SN BR OVC007
     FM302200 33013G24KT 6SM -SHSN OVC025=



000
FTUS41 KGYX 300927 AAC
TAFPSM
TAF AMD
KPSM 300927Z 3009/3106 VRB03KT 6SM -SN BR OVC025
      TEMPO 3009/3010 1/4SM +SN FZFG OVC002
     FM301000 10004KT 1 1/2SM -SN BR OVC015
     FM301300 11006KT 3/4SM -SN BR OVC007
     FM301800 13008KT 1/2SM SN OVC004
     FM310000 33013G24KT 3SM -SHSN OVC025=



000
FTUS41 KGYX 300927 AAB
TAFLEB
TAF AMD
KLEB 300927Z 3009/3106 VRB03KT 6SM -SN BR OVC025
      TEMPO 3009/3010 2SM -SN BR OVC015
     FM301000 VRB03KT 1 1/2SM -SN BR OVC015
     FM301100 32004KT 1 1/2SM -SN BR OVC007
     FM301800 32008KT 2SM -SN BR OVC007
     FM302100 33013G24KT 6SM -SHSN OVC025=



000
FTUS41 KGYX 300927 AAA
TAFAUG
TAF AMD
KAUG 300927Z 3009/3106 06004KT 1 1/2SM -SN BR OVC015
     FM301200 11006KT 3/4SM -SN BR OVC007
     FM301500 13008KT 1/2SM SN OVC004
     FM310500 33015G24KT 1 1/2SM -SN BLSN OVC012=



000
FTUS41 KGYX 300925 AAB
TAFPSM
TAF AMD
KPSM 300925Z 3009/3106 VRB03KT 6SM -SN BR OVC025
      TEMPO 3009/3010 1/4SM +SN FZFG OVC002
     FM301000 10004KT 1 1/2SM -SN BR OVC015
     FM301300 11006KT 3/4SM -SN BR OVC007
     FM301800 13008KT 1/2SM SN OVC004
     FM310000 33013G24KT 3SM -SHSN OVC025=



000
FTUS41 KGYX 300829 AAB
TAFPWM
TAF AMD
KPWM 300829Z 3008/3106 VRB03KT 3SM -SN BR OVC035
      TEMPO 3008/3010 1SM -SN BR OVC015
     FM301000 06004KT 1 1/2SM -SN BR OVC015
     FM301200 11006KT 3/4SM -SN BR OVC007
     FM301500 13008KT 1/2SM SN OVC004
     FM310300 33017G28KT 3SM -SN BLSN OVC025=



000
FTUS41 KGYX 300756 AAD
TAFCON
TAF AMD
KCON 300756Z 3008/3106 15005KT 3SM -SN BR OVC030
      TEMPO 3008/3011 1 1/2SM -SN BR OVC015
     FM301100 12004KT 1/2SM SN FG OVC004
     FM301900 32008KT 2SM -SN BR OVC007
     FM302200 33013G24KT 6SM -SHSN OVC025=



000
FTUS41 KGYX 300755 AAA
TAFPWM
TAF AMD
KPWM 300755Z 3008/3106 VRB03KT 3SM -SN BR OVC020
      TEMPO 3008/3010 1SM -SN BR OVC015
     FM301000 06004KT 1 1/2SM -SN BR OVC015
     FM301200 11006KT 3/4SM -SN BR OVC007
     FM301500 13008KT 1/2SM SN OVC004
     FM310300 33017G28KT 3SM -SN BLSN OVC025=



000
FTUS41 KGYX 300713 AAC
TAFCON
TAF AMD
KCON 300713Z 3007/3106 16005KT 6SM -SN BR OVC035
      TEMPO 3007/3011 1 1/2SM -SN BR OVC015
     FM301100 12004KT 1/2SM SN FG OVC004
     FM301900 32008KT 2SM -SN BR OVC007
     FM302200 33013G24KT 6SM -SHSN OVC025=



000
FTUS41 KGYX 300658 AAA
TAFLEB
TAF AMD
KLEB 300658Z 3007/3106 VRB03KT 6SM -SN BR OVC025
      TEMPO 3007/3009 2SM -SN BR OVC015
     FM300900 VRB03KT 1 1/2SM -SN BR OVC015
     FM301000 32004KT 1 1/2SM -SN BR OVC007
     FM301800 32008KT 2SM -SN BR OVC007
     FM302100 33013G24KT 6SM -SHSN OVC025=



000
FTUS41 KGYX 300657 AAA
TAFPSM
TAF AMD
KPSM 300657Z 3007/3106 VRB03KT 6SM -SN BR OVC025
      TEMPO 3007/3010 1 1/2SM -SN BR OVC015
     FM301000 10004KT 1 1/2SM -SN BR OVC015
     FM301300 11006KT 3/4SM -SN BR OVC007
     FM301800 13008KT 1/2SM SN OVC004
     FM310000 33013G24KT 3SM -SHSN OVC025=



000
FTUS41 KGYX 300656 AAB
TAFCON
TAF AMD
KCON 300656Z 3007/3106 15005KT 6SM -SN BR OVC035
      TEMPO 3008/3012 2SM -SN BR OVC020
     FM301200 12004KT 1/2SM SN FG OVC004
     FM301900 32008KT 2SM -SN BR OVC007
     FM302200 33013G24KT 6SM -SHSN OVC025=



000
FTUS41 KGYX 300555 AAA
TAFCON
TAF AMD
KCON 300555Z 3006/3106 13005KT 1 1/2SM -SN BR OVC015
     FM301200 12004KT 1/2SM SN FG OVC004
     FM301900 32008KT 2SM -SN BR OVC007
     FM302200 33013G24KT 6SM -SHSN OVC025=



000
FTUS41 KGYX 300525
TAFPWM
TAF
KPWM 300525Z 3006/3106 VRB03KT 3SM -SN BR OVC020
     FM300800 06004KT 1 1/2SM -SN BR OVC015
     FM301100 11006KT 3/4SM -SN BR OVC007
     FM301500 13008KT 1/2SM SN OVC004
     FM310300 33017G28KT 3SM -SN BLSN OVC025=



000
FTUS41 KGYX 300525
TAFAUG
TAF
KAUG 300525Z 3006/3106 VRB03KT P6SM OVC025
     FM300730 VRB03KT 4SM -SN BR OVC015
     FM300900 06004KT 1 1/2SM -SN BR OVC015
     FM301200 11006KT 3/4SM -SN BR OVC007
     FM301500 13008KT 1/2SM SN OVC004
     FM310500 33015G24KT 1 1/2SM -SN BLSN OVC012=



000
FTUS41 KGYX 300525
TAFPSM
TAF
KPSM 300525Z 3006/3106 VRB03KT 3SM -SN BR OVC020
     FM300800 10004KT 1 1/2SM -SN BR OVC015
     FM301300 11006KT 3/4SM -SN BR OVC007
     FM301800 13008KT 1/2SM SN OVC004
     FM310000 33013G24KT 3SM -SHSN OVC025=



000
FTUS41 KGYX 300525
TAFCON
TAF
KCON 300525Z 3006/3106 16005KT 3SM -SN BR OVC025
     FM300700 07004KT 1 1/2SM -SN BR OVC007
     FM301200 12004KT 1/2SM SN FG OVC004
     FM301900 32008KT 2SM -SN BR OVC007
     FM302200 33013G24KT 6SM -SHSN OVC025=



000
FTUS41 KGYX 300525
TAFLEB
TAF
KLEB 300525Z 3006/3106 19008KT 2SM -SN BR OVC025
      TEMPO 3006/3007 1 1/2SM -SN BR OVC015
     FM300700 18009KT 1 1/2SM -SN BR OVC015
     FM300900 32004KT 1 1/2SM -SN BR OVC007
     FM301800 32008KT 2SM -SN BR OVC007
     FM302100 33013G24KT 6SM -SHSN OVC025=



000
FTUS41 KGYX 300513 AAD
TAFLEB
TAF AMD
KLEB 300513Z 3005/3024 19008KT 2SM -SN BR OVC025
      TEMPO 3005/3007 1 1/2SM -SN BR OVC015
     FM300700 18009KT 1 1/2SM -SN BR OVC015
     FM300900 32004KT 1 1/2SM -SN BR OVC007=



000
FTUS41 KGYX 300438 AAC
TAFLEB
TAF AMD
KLEB 300438Z 3005/3024 19012KT 2SM -SN BR OVC025
      TEMPO 3005/3007 1SM -SN BR OVC013
     FM300700 18009KT 1 1/2SM -SN BR OVC015
     FM300900 32004KT 1 1/2SM -SN BR OVC007=



000
FTUS41 KGYX 300427 AAB
TAFLEB
TAF AMD
KLEB 300427Z 3004/3024 20012KT 2SM -SN BR OVC025
     FM300600 18009KT 1 1/2SM -SN BR OVC015
     FM300900 32004KT 1 1/2SM -SN BR OVC007=



000
FTUS41 KGYX 300406 AAA
TAFCON
TAF AMD
KCON 300406Z 3004/3024 15004KT P6SM OVC250
     FM300600 VRB03KT 3SM -SN BR OVC025
     FM300700 07004KT 1 1/2SM -SN BR OVC007
     FM301200 12004KT 1/2SM SN FG OVC004
     FM301900 32008KT 2SM -SN BR OVC007=



000
FTUS41 KGYX 300344 AAA
TAFLEB
TAF AMD
KLEB 300344Z 3004/3024 VRB03KT P6SM OVC035
     FM300500 18006KT 4SM -SN BR OVC030
     FM300600 18004KT 1 1/2SM -SN BR OVC015
     FM300900 32004KT 1 1/2SM -SN BR OVC007=



000
FTUS41 KGYX 292320
TAFCON
TAF
KCON 292320Z 3000/3024 15004KT P6SM OVC250
     FM300500 VRB03KT 3SM -SN BR OVC025
     FM300700 07004KT 1 1/2SM -SN BR OVC007
     FM301200 12004KT 1/2SM SN FG OVC004
     FM301900 32008KT 2SM -SN BR OVC007=



000
FTUS41 KGYX 292320
TAFPWM
TAF
KPWM 292320Z 3000/3024 VRB03KT P6SM OVC250
     FM300600 VRB03KT 4SM -SN BR OVC015
     FM300800 06004KT 1 1/2SM -SN BR OVC015
     FM301100 11006KT 3/4SM -SN BR OVC007
     FM301500 13008KT 1/2SM SN OVC004=



000
FTUS41 KGYX 292320
TAFPSM
TAF
KPSM 292320Z 3000/3024 VRB03KT P6SM OVC250
     FM300600 VRB03KT 4SM -SN BR OVC015
     FM300800 10004KT 1 1/2SM -SN BR OVC015
     FM301300 11006KT 3/4SM -SN BR OVC007
     FM301800 13008KT 1/2SM SN OVC004=



000
FTUS41 KGYX 292320
TAFLEB
TAF
KLEB 292320Z 3000/3024 VRB03KT P6SM OVC100
     FM300300 18006KT 4SM -SN BR OVC035
     FM300600 18004KT 1 1/2SM -SN BR OVC015
     FM300900 32004KT 1 1/2SM -SN BR OVC007=



000
FTUS41 KGYX 292320
TAFAUG
TAF
KAUG 292320Z 3000/3024 VRB03KT P6SM OVC250
     FM300700 VRB03KT 4SM -SN BR OVC015
     FM300800 06004KT 1 1/2SM -SN BR OVC015
     FM301200 11006KT 3/4SM -SN BR OVC007
     FM301500 13008KT 1/2SM SN OVC004=



000
FTUS41 KGYX 291728
TAFPSM
TAF
KPSM 291728Z 2918/3018 VRB03KT P6SM BKN250
     FM300300 VRB03KT P6SM OVC100
     FM300900 11005KT 3SM -SN BR OVC015
     FM301300 12007KT 1 1/2SM -SN BR OVC005=



000
FTUS41 KGYX 291728
TAFLEB
TAF
KLEB 291728Z 2918/3018 VRB03KT P6SM BKN250
     FM300000 VRB03KT P6SM OVC080
     FM300600 VRB03KT 2SM -SN BR OVC015
     FM301200 VRB03KT 1SM -SN BR OVC004=



000
FTUS41 KGYX 291728
TAFCON
TAF
KCON 291728Z 2918/3018 VRB03KT P6SM SCT250
     FM300200 VRB03KT P6SM OVC100
     FM300600 VRB03KT 4SM -SN BR OVC020
     FM301100 VRB03KT 1 1/2SM -SN BR OVC005=



000
FTUS41 KGYX 291728
TAFAUG
TAF
KAUG 291728Z 2918/3018 VRB03KT P6SM SCT250
     FM300500 VRB03KT P6SM OVC080
     FM300900 12006KT 2SM -SN BR OVC015=



000
FTUS41 KGYX 291728
TAFPWM
TAF
KPWM 291728Z 2918/3018 VRB03KT P6SM SCT250
     FM300300 VRB03KT P6SM OVC100
     FM300800 13006KT 4SM -SN BR OVC015
     FM301500 12008KT 1SM -SN BR OVC006=



000
FTUS41 KGYX 291121
TAFAUG
TAF
KAUG 291121Z 2912/3012 VRB03KT P6SM SCT250
     FM300500 15003KT P6SM SCT100
     FM301100 14003KT 1 1/2SM -SN OVC025=



000
FTUS41 KGYX 291121
TAFPWM
TAF
KPWM 291121Z 2912/3012 VRB03KT P6SM SCT250
     FM300300 15004KT P6SM OVC100
     FM300900 13005KT 3SM -SN OVC015=



000
FTUS41 KGYX 291121
TAFLEB
TAF
KLEB 291121Z 2912/3012 00000KT P6SM SCT250
     FM292000 18004KT P6SM SCT100
     FM300200 17004KT P6SM SCT040 OVC100
     FM300600 17003KT 1 1/2SM -SN BR OVC015=



000
FTUS41 KGYX 291121
TAFPSM
TAF
KPSM 291121Z 2912/3012 VRB03KT P6SM SCT250
     FM300300 17004KT P6SM OVC100
     FM300900 11005KT 1 1/2SM -SN OVC015=



000
FTUS41 KGYX 291121
TAFCON
TAF
KCON 291121Z 2912/3012 VRB03KT P6SM SCT250
     FM300300 VRB03KT P6SM OVC100
     FM300600 15003KT 3SM -SN BR OVC025
     FM300900 15003KT 1 1/2SM -SN BR OVC007=



000
FTUS41 KGYX 290900 AAA
TAFPSM
TAF AMD
KPSM 290900Z 2909/3006 VRB03KT P6SM SCT250
     FM300300 17004KT P6SM OVC100=



000
FTUS41 KGYX 290900 AAA
TAFLEB
TAF AMD
KLEB 290900Z 2909/3006 00000KT P6SM SCT250
     FM292000 18004KT P6SM SCT100
     FM300400 17004KT P6SM SCT040 OVC100=



000
FTUS41 KGYX 290900 AAA
TAFAUG
TAF AMD
KAUG 290900Z 2909/3006 VRB03KT P6SM SCT250
     FM300500 15003KT P6SM SCT100=



000
FTUS41 KGYX 290900 AAA
TAFPWM
TAF AMD
KPWM 290900Z 2909/3006 VRB03KT P6SM SCT250
     FM300300 15004KT P6SM OVC100=



000
FTUS41 KGYX 290900 AAA
TAFCON
TAF AMD
KCON 290900Z 2909/3006 VRB03KT P6SM SCT250
     FM300300 VRB03KT P6SM OVC100=



000
FTUS41 KGYX 290520
TAFCON
TAF
KCON 290520Z 2906/3006 VRB03KT P6SM SCT250
     FM300300 VRB03KT P6SM OVC100=



000
FTUS41 KGYX 290520
TAFPSM
TAF
KPSM 290520Z 2906/3006 VRB03KT P6SM SCT250
     FM300300 17004KT P6SM OVC100=



000
FTUS41 KGYX 290520
TAFAUG
TAF
KAUG 290520Z 2906/3006 VRB03KT P6SM SCT250
     FM300500 15003KT P6SM SCT100=



000
FTUS41 KGYX 290520
TAFPWM
TAF
KPWM 290520Z 2906/3006 VRB03KT P6SM SCT250
     FM300300 15004KT P6SM OVC100=



000
FTUS41 KGYX 290520
TAFLEB
TAF
KLEB 290520Z 2906/3006 00000KT P6SM SCT250
     FM292000 18004KT P6SM SCT100
     FM300400 17004KT P6SM SCT040 OVC100=



000
FTUS41 KGYX 282334
TAFPWM
TAF
KPWM 282334Z 2900/2924 33006KT P6SM SCT250
     FM291200 VRB03KT P6SM SCT250=



000
FTUS41 KGYX 282334
TAFLEB
TAF
KLEB 282334Z 2900/2924 00000KT P6SM SCT250
     FM292000 18004KT P6SM BKN250=



000
FTUS41 KGYX 282334
TAFPSM
TAF
KPSM 282334Z 2900/2924 30006KT P6SM SCT250
     FM290100 VRB03KT P6SM SCT250=



000
FTUS41 KGYX 282334
TAFAUG
TAF
KAUG 282334Z 2900/2924 32008KT P6SM SCT250
     FM290200 32004KT P6SM SCT250
     FM291200 VRB03KT P6SM SCT250=



000
FTUS41 KGYX 282334
TAFCON
TAF
KCON 282334Z 2900/2924 32006KT P6SM SCT250
     FM290100 VRB03KT P6SM SCT250=



000
FTUS41 KGYX 282056 AAB
TAFAUG
TAF AMD
KAUG 282056Z 2821/2918 34012KT P6SM SCT100
     FM290000 33004KT P6SM SKC=



000
FTUS41 KGYX 282009 AAA
TAFAUG
TAF AMD
KAUG 282009Z 2820/2918 33015G25KT P6SM SCT035
      TEMPO 2820/2824 3/4SM BLSN BKN035
     FM290000 33004KT P6SM SKC=



000
FTUS41 KGYX 282004 AAA
TAFPSM
TAF AMD
KPSM 282004Z 2820/2918 28012KT P6SM SCT035
     FM282100 31011KT P6SM OVC100
     FM290000 32004KT P6SM SKC=



000
FTUS41 KGYX 281720
TAFPWM
TAF
KPWM 281720Z 2818/2918 33011G18KT P6SM SCT050
     FM282000 33010G17KT P6SM SCT100
     FM282100 33009G16KT P6SM BKN250
     FM282300 33006KT P6SM SKC
     FM291200 VRB03KT P6SM SKC=



000
FTUS41 KGYX 281720
TAFCON
TAF
KCON 281720Z 2818/2918 32010G17KT P6SM SCT050
     FM282100 31010KT P6SM BKN250
     FM290000 32002KT P6SM SKC=



000
FTUS41 KGYX 281720
TAFPSM
TAF
KPSM 281720Z 2818/2918 31012G20KT P6SM SCT035
     FM282100 31011KT P6SM OVC100
     FM290000 32004KT P6SM SKC=



000
FTUS41 KGYX 281720
TAFAUG
TAF
KAUG 281720Z 2818/2918 33015G25KT P6SM SCT035
     FM290000 33004KT P6SM SKC=



000
FTUS41 KGYX 281720
TAFLEB
TAF
KLEB 281720Z 2818/2918 33012G18KT P6SM OVC100
     FM282100 00000KT P6SM SCT250=



000
FTUS41 KGYX 281454 AAA
TAFPSM
TAF AMD
KPSM 281454Z 2815/2912 31010KT P6SM OVC030
     FM281600 32009KT P6SM SCT050 BKN080=



000
FTUS41 KGYX 281425 AAA
TAFAUG
TAF AMD
KAUG 281425Z 2814/2912 34015G25KT 3/4SM -SN OVC040
     FM281500 33012G22KT P6SM -SHSN BKN025 OVC040
     FM281800 33014G20KT P6SM BKN040 BKN080=



000
FTUS41 KGYX 281121
TAFCON
TAF
KCON 281121Z 2812/2912 32010KT P6SM OVC060
     FM281300 33009KT P6SM -SHSN BKN040 OVC080
     FM281600 33009KT P6SM SCT050 BKN080=



000
FTUS41 KGYX 281121
TAFPSM
TAF
KPSM 281121Z 2812/2912 31010KT P6SM OVC040
     FM281300 32009KT P6SM -SHSN BKN040 OVC080
     FM281600 32009KT P6SM SCT050 BKN080=



000
FTUS41 KGYX 281121
TAFPWM
TAF
KPWM 281121Z 2812/2912 32013KT P6SM OVC045
     FM281600 33012KT P6SM BKN040 BKN080
     FM282000 32009KT P6SM SCT050 SCT100=



000
FTUS41 KGYX 281121
TAFLEB
TAF
KLEB 281121Z 2812/2912 35010KT P6SM BKN035 OVC050
     FM281500 34007KT P6SM SCT050 SCT100=



000
FTUS41 KGYX 281121
TAFAUG
TAF
KAUG 281121Z 2812/2912 34015G25KT 6SM -SHSN OVC060
     FM281500 33012G22KT P6SM -SHSN BKN025 OVC040
     FM281800 33014G20KT P6SM BKN040 BKN080=



000
FTUS41 KGYX 281120 AAD
TAFPWM
TAF AMD
KPWM 281120Z 2811/2906 32013KT P6SM OVC045
     FM281600 33012KT P6SM BKN040 BKN080
     FM282000 32009KT P6SM SCT050 SCT100=



000
FTUS41 KGYX 281018 AAA
TAFLEB
TAF AMD
KLEB 281018Z 2810/2906 35010KT P6SM BKN035 OVC050
     FM281500 34007KT P6SM SCT050 SCT100=



000
FTUS41 KGYX 281018 AAC
TAFPWM
TAF AMD
KPWM 281018Z 2810/2906 33013G20KT 6SM BLSN OVC045
     FM281600 33012KT P6SM BKN040 BKN080
     FM282000 32009KT P6SM SCT050 SCT100=



000
FTUS41 KGYX 281018 AAB
TAFAUG
TAF AMD
KAUG 281018Z 2810/2906 34015G25KT 6SM -SHSN OVC060
     FM281500 33012G22KT P6SM -SHSN BKN025 OVC040
     FM281800 33014G20KT P6SM BKN040 BKN080=



000
FTUS41 KGYX 281018 AAA
TAFPSM
TAF AMD
KPSM 281018Z 2810/2906 31010KT P6SM OVC040
     FM281300 32009KT P6SM -SHSN BKN040 OVC080
     FM281600 32009KT P6SM SCT050 BKN080=



000
FTUS41 KGYX 281018 AAA
TAFCON
TAF AMD
KCON 281018Z 2810/2906 32010KT P6SM OVC060
     FM281300 33009KT P6SM -SHSN BKN040 OVC080
     FM281600 33009KT P6SM SCT050 BKN080=



    US Dept of Commerce
    National Oceanic and Atmospheric Administration
    National Weather Service
    1325 East West Highway
    Silver Spring, MD 20910
    Page Author: NWS Internet Services Team
Disclaimer
Information Quality
Credits
Glossary
Privacy Policy
Freedom of Information Act (FOIA)
About Us
Career Opportunities